createdAt,value
2023-02-23T00:01:54.497Z,62.43
2023-02-23T00:04:23.728Z,63.00
2023-02-23T00:06:55.231Z,63.05
2023-02-23T00:09:23.153Z,63.31
2023-02-23T00:11:55.890Z,63.43
2023-02-23T00:14:31.361Z,63.62
2023-02-23T00:17:00.021Z,63.43
2023-02-23T00:19:27.675Z,63.77
2023-02-23T00:21:55.045Z,64.15
2023-02-23T00:24:23.515Z,64.15
2023-02-23T00:26:51.596Z,63.73
2023-02-23T00:29:22.223Z,64.06
2023-02-23T00:31:50.802Z,64.39
2023-02-23T00:34:21.903Z,64.16
2023-02-23T00:36:56.931Z,64.52
2023-02-23T00:39:29.342Z,64.59
2023-02-23T00:42:03.595Z,64.64
2023-02-23T00:44:32.777Z,64.80
2023-02-23T00:47:00.960Z,64.67
2023-02-23T00:49:28.210Z,64.96
2023-02-23T00:51:55.475Z,65.14
2023-02-23T00:54:23.041Z,65.35
2023-02-23T00:56:50.562Z,65.58
2023-02-23T00:59:19.336Z,65.48
2023-02-23T01:01:46.463Z,65.74
2023-02-23T01:04:13.837Z,65.84
2023-02-23T01:06:41.766Z,66.18
2023-02-23T01:09:13.706Z,66.58
2023-02-23T01:11:41.993Z,66.43
2023-02-23T01:14:10.653Z,66.33
2023-02-23T01:16:39.039Z,67.05
2023-02-23T01:19:07.097Z,67.11
2023-02-23T01:21:38.242Z,67.16
2023-02-23T01:24:06.366Z,67.10
2023-02-23T01:26:38.244Z,67.91
2023-02-23T01:29:11.374Z,67.75
2023-02-23T01:31:41.242Z,67.89
2023-02-23T01:34:11.959Z,67.89
2023-02-23T01:36:41.091Z,67.98
2023-02-23T01:39:12.307Z,68.29
2023-02-23T01:41:44.614Z,68.75
2023-02-23T01:44:15.081Z,68.82
2023-02-23T01:46:45.620Z,69.42
2023-02-23T01:49:34.649Z,69.09
2023-02-23T01:52:11.072Z,70.00
2023-02-23T01:54:43.845Z,69.99
2023-02-23T01:57:14.637Z,70.29
2023-02-23T01:59:45.143Z,70.93
2023-02-23T02:02:13.722Z,71.24
2023-02-23T02:04:46.300Z,72.27
2023-02-23T02:07:17.223Z,72.28
2023-02-23T02:10:09.488Z,72.91
2023-02-23T02:12:58.157Z,72.49
2023-02-23T02:15:33.193Z,73.32
2023-02-23T02:18:26.685Z,73.30
2023-02-23T02:21:24.584Z,73.83
2023-02-23T02:24:15.267Z,74.36
2023-02-23T02:26:52.625Z,74.14
2023-02-23T02:29:26.405Z,74.74
2023-02-23T02:32:12.099Z,74.86
2023-02-23T02:35:07.737Z,75.28
2023-02-23T02:38:12.853Z,75.93
2023-02-23T02:41:13.704Z,77.04
2023-02-23T02:43:51.291Z,76.78
2023-02-23T02:46:25.262Z,76.55
2023-02-23T02:49:31.650Z,76.67
2023-02-23T02:52:11.859Z,76.79
2023-02-23T02:54:48.875Z,77.22
2023-02-23T02:57:18.381Z,77.01
2023-02-23T03:00:06.865Z,77.29
2023-02-23T03:02:56.134Z,77.71
2023-02-23T03:05:47.790Z,77.84
2023-02-23T03:08:40.994Z,78.38
2023-02-23T03:11:31.884Z,78.78
2023-02-23T03:14:53.986Z,78.88
2023-02-23T03:17:55.917Z,79.64
2023-02-23T03:20:46.208Z,80.09
2023-02-23T03:23:42.409Z,80.74
2023-02-23T03:26:40.325Z,81.11
2023-02-23T03:29:29.520Z,81.62
2023-02-23T03:32:22.904Z,81.81
2023-02-23T03:35:22.640Z,81.97
2023-02-23T03:38:17.403Z,82.36
2023-02-23T03:41:07.281Z,82.58
2023-02-23T03:44:00.580Z,83.00
2023-02-23T03:46:50.269Z,83.13
2023-02-23T03:49:37.745Z,83.19
2023-02-23T03:52:35.541Z,83.20
2023-02-23T03:55:26.482Z,82.99
2023-02-23T03:58:19.795Z,83.54
2023-02-23T04:01:08.697Z,83.52
2023-02-23T04:04:00.373Z,83.55
2023-02-23T04:06:51.634Z,83.79
2023-02-23T04:09:37.375Z,83.77
2023-02-23T04:12:34.484Z,83.66
2023-02-23T04:15:19.915Z,84.24
2023-02-23T04:17:47.224Z,84.13
2023-02-23T04:20:14.732Z,83.88
2023-02-23T04:22:41.710Z,84.13
2023-02-23T04:25:10.058Z,84.14
2023-02-23T04:27:37.207Z,84.21
2023-02-23T04:30:05.907Z,84.71
2023-02-23T04:32:32.886Z,84.44
2023-02-23T04:35:00.539Z,84.71
2023-02-23T04:37:27.530Z,84.78
2023-02-23T04:39:54.859Z,85.12
2023-02-23T04:42:21.681Z,84.65
2023-02-23T04:44:49.896Z,84.73
2023-02-23T04:47:17.574Z,84.96
2023-02-23T04:49:45.207Z,85.17
2023-02-23T04:52:12.783Z,85.79
2023-02-23T04:54:41.129Z,85.67
2023-02-23T04:57:09.005Z,86.08
2023-02-23T04:59:36.988Z,85.74
2023-02-23T05:02:04.337Z,86.12
2023-02-23T05:04:35.425Z,85.79
2023-02-23T05:07:03.895Z,86.08
2023-02-23T05:09:31.348Z,85.77
2023-02-23T05:11:58.772Z,86.00
2023-02-23T05:14:26.201Z,86.25
2023-02-23T05:16:53.569Z,86.07
2023-02-23T05:19:21.555Z,86.70
2023-02-23T05:21:50.635Z,86.23
2023-02-23T05:24:18.925Z,86.48
2023-02-23T05:26:46.514Z,86.73
2023-02-23T05:29:14.297Z,86.11
2023-02-23T05:31:42.560Z,86.11
2023-02-23T05:34:10.365Z,86.14
2023-02-23T05:36:38.340Z,85.96
2023-02-23T05:39:05.569Z,86.20
2023-02-23T05:41:32.906Z,86.10
2023-02-23T05:44:00.414Z,86.07
2023-02-23T05:46:28.243Z,85.97
2023-02-23T05:49:00.893Z,85.83
2023-02-23T05:51:30.061Z,86.03
2023-02-23T05:53:57.973Z,85.92
2023-02-23T05:56:25.619Z,85.70
2023-02-23T05:58:57.864Z,85.23
2023-02-23T06:01:26.350Z,85.04
2023-02-23T06:03:53.809Z,84.89
2023-02-23T06:06:22.365Z,84.80
2023-02-23T06:08:50.114Z,84.51
2023-02-23T06:11:18.003Z,84.47
2023-02-23T06:13:45.625Z,83.70
2023-02-23T06:16:13.002Z,83.83
2023-02-23T06:18:40.979Z,83.27
2023-02-23T06:21:08.678Z,83.36
2023-02-23T06:23:36.293Z,82.63
2023-02-23T06:26:03.332Z,82.84
2023-02-23T06:28:30.704Z,82.34
2023-02-23T06:30:57.852Z,82.55
2023-02-23T06:33:25.667Z,82.48
2023-02-23T06:35:54.791Z,82.28
2023-02-23T06:38:22.248Z,82.00
2023-02-23T06:40:49.514Z,81.75
2023-02-23T06:43:17.134Z,81.40
2023-02-23T06:45:46.092Z,81.22
2023-02-23T06:48:13.254Z,81.53
2023-02-23T06:50:40.141Z,80.84
2023-02-23T06:53:07.473Z,80.60
2023-02-23T06:55:34.457Z,80.26
2023-02-23T06:58:02.177Z,80.70
2023-02-23T07:00:30.562Z,80.45
2023-02-23T07:02:58.363Z,79.83
2023-02-23T07:05:26.332Z,79.86
2023-02-23T07:07:53.715Z,79.54
2023-02-23T07:10:21.043Z,79.63
2023-02-23T07:12:48.438Z,79.95
2023-02-23T07:15:18.124Z,79.46
2023-02-23T07:17:48.796Z,79.48
2023-02-23T07:20:16.218Z,78.94
2023-02-23T07:22:43.551Z,79.12
2023-02-23T07:25:11.203Z,78.45
2023-02-23T07:27:38.675Z,78.25
2023-02-23T07:30:06.203Z,77.61
2023-02-23T07:32:34.094Z,77.67
2023-02-23T07:35:03.266Z,77.64
2023-02-23T07:37:30.761Z,77.62
2023-02-23T07:39:59.481Z,77.75
2023-02-23T07:42:28.634Z,77.37
2023-02-23T07:44:56.276Z,77.29
2023-02-23T07:47:30.859Z,77.70
2023-02-23T07:49:59.815Z,77.21
2023-02-23T07:52:27.389Z,76.83
2023-02-23T07:54:54.833Z,76.03
2023-02-23T07:57:23.980Z,75.42
2023-02-23T07:59:51.965Z,75.23
2023-02-23T08:02:19.646Z,75.11
2023-02-23T08:04:47.998Z,74.93
2023-02-23T08:07:15.538Z,74.42
2023-02-23T08:09:42.866Z,74.10
2023-02-23T08:12:10.580Z,72.89
2023-02-23T08:14:37.508Z,72.94
2023-02-23T08:17:04.743Z,73.58
2023-02-23T08:19:32.081Z,73.46
2023-02-23T08:21:59.735Z,72.41
2023-02-23T08:24:27.218Z,72.89
2023-02-23T08:26:54.550Z,73.11
2023-02-23T08:29:22.359Z,72.81
2023-02-23T08:31:51.745Z,72.95
2023-02-23T08:34:20.236Z,73.01
2023-02-23T08:36:47.674Z,72.81
2023-02-23T08:39:15.701Z,73.05
2023-02-23T08:41:42.900Z,73.27
2023-02-23T08:44:10.238Z,73.50
2023-02-23T08:46:37.929Z,73.32
2023-02-23T08:49:06.092Z,73.17
2023-02-23T08:51:35.077Z,72.98
2023-02-23T08:54:02.433Z,72.33
2023-02-23T08:56:30.792Z,73.38
2023-02-23T08:58:57.801Z,71.57
2023-02-23T09:01:25.300Z,71.18
2023-02-23T09:03:52.368Z,70.98
2023-02-23T09:06:22.398Z,71.83
2023-02-23T09:08:50.563Z,70.99
2023-02-23T09:11:18.723Z,70.97
2023-02-23T09:13:46.214Z,69.99
2023-02-23T09:16:13.783Z,70.67
2023-02-23T09:18:41.297Z,70.07
2023-02-23T09:21:19.397Z,69.78
2023-02-23T09:23:48.350Z,68.75
2023-02-23T09:26:18.060Z,68.03
2023-02-23T09:28:45.439Z,68.37
2023-02-23T09:31:16.151Z,68.45
2023-02-23T09:33:43.314Z,68.18
2023-02-23T09:36:19.741Z,67.45
2023-02-23T09:38:49.053Z,67.71
2023-02-23T09:41:25.336Z,67.01
2023-02-23T09:44:12.639Z,66.74
2023-02-23T09:47:14.152Z,67.47
2023-02-23T09:49:45.361Z,67.39
2023-02-23T09:52:20.811Z,67.17
2023-02-23T09:54:48.309Z,66.52
2023-02-23T09:57:21.505Z,67.03
2023-02-23T09:59:48.648Z,67.75
2023-02-23T10:02:32.333Z,67.47
2023-02-23T10:05:05.841Z,67.55
2023-02-23T10:07:51.457Z,67.34
2023-02-23T10:10:26.321Z,67.34
2023-02-23T10:13:42.104Z,67.82
2023-02-23T10:16:42.867Z,67.60
2023-02-23T10:19:23.206Z,67.79
2023-02-23T10:21:56.674Z,67.49
2023-02-23T10:24:45.452Z,67.02
2023-02-23T10:27:19.306Z,66.52
2023-02-23T10:29:51.717Z,65.82
2023-02-23T10:32:46.224Z,65.64
2023-02-23T10:35:19.912Z,65.53
2023-02-23T10:37:48.140Z,65.24
2023-02-23T10:40:23.024Z,65.47
2023-02-23T10:42:54.295Z,65.59
2023-02-23T10:45:24.811Z,65.68
2023-02-23T10:48:04.235Z,65.89
2023-02-23T10:50:33.151Z,65.01
2023-02-23T10:53:35.967Z,64.89
2023-02-23T10:56:15.993Z,64.38
2023-02-23T10:58:46.814Z,64.40
2023-02-23T11:01:32.443Z,64.28
2023-02-23T11:04:14.450Z,63.62
2023-02-23T11:06:43.814Z,63.84
2023-02-23T11:09:43.760Z,64.13
2023-02-23T11:12:43.394Z,63.42
2023-02-23T11:15:46.563Z,63.10
2023-02-23T11:18:34.031Z,62.17
2023-02-23T11:21:02.013Z,62.31
2023-02-23T11:23:35.841Z,62.35
2023-02-23T11:26:06.261Z,61.90
2023-02-23T11:28:42.674Z,61.78
2023-02-23T11:31:18.873Z,61.91
2023-02-23T11:33:47.969Z,61.91
2023-02-23T11:36:29.134Z,61.75
2023-02-23T11:39:16.850Z,61.35
2023-02-23T11:41:44.331Z,60.99
2023-02-23T11:44:23.409Z,62.37
2023-02-23T11:46:52.177Z,62.08
2023-02-23T11:49:33.342Z,61.70
2023-02-23T11:52:00.543Z,61.34
2023-02-23T11:54:31.083Z,61.44
2023-02-23T11:56:58.889Z,61.34
2023-02-23T11:59:37.279Z,61.57
2023-02-23T12:02:15.862Z,61.21
2023-02-23T12:04:47.659Z,61.30
2023-02-23T12:07:41.864Z,61.96
2023-02-23T12:10:18.949Z,60.77
2023-02-23T12:13:16.371Z,60.79
2023-02-23T12:15:52.508Z,60.44
2023-02-23T12:18:34.869Z,60.28
2023-02-23T12:21:12.307Z,60.02
2023-02-23T12:23:43.591Z,60.56
2023-02-23T12:26:18.110Z,60.79
2023-02-23T12:28:54.402Z,61.10
2023-02-23T12:31:31.142Z,60.80
2023-02-23T12:34:05.235Z,60.19
2023-02-23T12:36:52.597Z,59.84
2023-02-23T12:39:25.755Z,59.77
2023-02-23T12:41:53.162Z,60.30
2023-02-23T12:44:35.092Z,60.10
2023-02-23T12:47:15.062Z,60.17
2023-02-23T12:49:48.015Z,60.84
2023-02-23T12:52:28.008Z,60.52
2023-02-23T12:54:55.354Z,60.29
2023-02-23T12:57:48.477Z,60.56
2023-02-23T13:00:24.213Z,60.49
2023-02-23T13:03:44.181Z,60.69
2023-02-23T13:06:23.264Z,61.03
2023-02-23T13:09:02.626Z,61.31
2023-02-23T13:11:47.666Z,61.27
2023-02-23T13:14:20.284Z,61.47
2023-02-23T13:17:01.407Z,61.28
2023-02-23T13:19:47.648Z,61.16
2023-02-23T13:22:30.821Z,60.67
2023-02-23T13:25:04.571Z,60.76
2023-02-23T13:27:40.628Z,61.39
2023-02-23T13:30:12.695Z,62.06
2023-02-23T13:32:39.640Z,62.28
2023-02-23T13:35:20.490Z,62.23
2023-02-23T13:38:07.553Z,62.15
2023-02-23T13:41:10.374Z,62.69
2023-02-23T13:44:18.328Z,61.83
2023-02-23T13:46:59.459Z,62.19
2023-02-23T13:49:47.127Z,62.05
2023-02-23T13:52:33.280Z,62.15
2023-02-23T13:55:05.742Z,61.83
2023-02-23T13:57:35.897Z,61.15
2023-02-23T14:00:03.556Z,61.52
2023-02-23T14:02:41.368Z,61.59
2023-02-23T14:05:25.106Z,61.51
2023-02-23T14:08:07.711Z,61.73
2023-02-23T14:10:43.494Z,61.75
2023-02-23T14:13:13.529Z,62.11
2023-02-23T14:15:49.958Z,61.65
2023-02-23T14:18:26.170Z,61.83
2023-02-23T14:21:12.975Z,62.22
2023-02-23T14:24:18.107Z,61.46
2023-02-23T14:27:15.094Z,61.69
2023-02-23T14:30:21.650Z,61.92
2023-02-23T14:32:51.253Z,62.12
2023-02-23T14:35:34.684Z,61.95
2023-02-23T14:38:07.585Z,62.02
2023-02-23T14:40:41.083Z,61.99
2023-02-23T14:43:53.171Z,61.81
2023-02-23T14:46:24.027Z,61.84
2023-02-23T14:49:19.415Z,61.91
2023-02-23T14:51:48.726Z,62.34
2023-02-23T14:54:36.143Z,62.25
2023-02-23T14:57:25.777Z,62.49
2023-02-23T14:59:58.870Z,62.03
2023-02-23T15:02:29.239Z,62.72
2023-02-23T15:04:57.718Z,63.10
2023-02-23T15:07:41.780Z,63.00
2023-02-23T15:10:24.493Z,62.72
2023-02-23T15:12:52.150Z,63.25
2023-02-23T15:15:23.743Z,63.29
2023-02-23T15:17:55.451Z,63.78
2023-02-23T15:20:28.913Z,63.96
2023-02-23T15:22:59.276Z,63.72
2023-02-23T15:25:35.614Z,63.66
2023-02-23T15:28:33.320Z,64.29
2023-02-23T15:31:02.390Z,64.59
2023-02-23T15:33:30.456Z,64.63
2023-02-23T15:36:09.454Z,65.17
2023-02-23T15:38:47.062Z,65.37
2023-02-23T15:41:33.139Z,65.70
2023-02-23T15:44:12.628Z,66.32
2023-02-23T15:46:41.707Z,66.39
2023-02-23T15:49:12.916Z,66.99
2023-02-23T15:51:50.622Z,66.92
2023-02-23T15:54:24.571Z,67.28
2023-02-23T15:56:57.300Z,67.84
2023-02-23T15:59:35.436Z,68.20
2023-02-23T16:02:04.493Z,67.89
2023-02-23T16:04:33.614Z,68.57
2023-02-23T16:07:14.793Z,68.88
2023-02-23T16:09:50.776Z,68.67
2023-02-23T16:12:25.059Z,69.13
2023-02-23T16:14:57.201Z,69.55
2023-02-23T16:17:27.065Z,69.83
2023-02-23T16:20:24.832Z,70.17
2023-02-23T16:22:53.815Z,70.17
2023-02-23T16:25:24.679Z,70.11
2023-02-23T16:28:03.547Z,70.31
2023-02-23T16:30:31.266Z,70.14
2023-02-23T16:33:21.792Z,70.48
2023-02-23T16:36:06.680Z,70.25
2023-02-23T16:38:55.533Z,70.78
2023-02-23T16:41:23.821Z,71.06
2023-02-23T16:43:53.678Z,71.32
2023-02-23T16:46:25.357Z,71.15
2023-02-23T16:48:52.387Z,71.35
2023-02-23T16:51:23.088Z,71.52
2023-02-23T16:53:52.516Z,71.60
2023-02-23T16:56:22.340Z,71.90
2023-02-23T16:58:57.375Z,71.86
2023-02-23T17:01:24.782Z,72.34
2023-02-23T17:03:54.312Z,72.35
2023-02-23T17:06:22.807Z,72.40
2023-02-23T17:08:58.098Z,72.54
2023-02-23T17:11:26.117Z,72.46
2023-02-23T17:13:53.202Z,72.89
2023-02-23T17:16:21.152Z,72.59
2023-02-23T17:18:49.001Z,72.85
2023-02-23T17:21:22.932Z,72.77
2023-02-23T17:23:51.483Z,72.99
2023-02-23T17:26:24.282Z,72.83
2023-02-23T17:28:53.986Z,73.17
2023-02-23T17:31:24.728Z,73.00
2023-02-23T17:33:53.658Z,73.31
2023-02-23T17:36:21.531Z,72.87
2023-02-23T17:38:49.006Z,73.25
2023-02-23T17:41:18.622Z,73.42
2023-02-23T17:43:46.085Z,73.41
2023-02-23T17:46:13.793Z,73.27
2023-02-23T17:48:44.872Z,73.33
2023-02-23T17:51:13.694Z,73.13
2023-02-23T17:53:40.908Z,73.19
2023-02-23T17:56:09.529Z,73.29
2023-02-23T17:58:37.821Z,73.19
2023-02-23T18:01:07.199Z,73.73
2023-02-23T18:03:36.827Z,73.55
2023-02-23T18:06:07.832Z,73.58
2023-02-23T18:08:35.725Z,73.65
2023-02-23T18:11:03.160Z,73.77
2023-02-23T18:13:30.906Z,73.44
2023-02-23T18:16:06.220Z,74.01
2023-02-23T18:18:33.214Z,74.06
2023-02-23T18:21:00.863Z,74.45
2023-02-23T18:23:32.497Z,74.56
2023-02-23T18:26:15.133Z,74.61
2023-02-23T18:28:44.513Z,74.89
2023-02-23T18:31:19.586Z,75.06
2023-02-23T18:33:53.010Z,75.14
2023-02-23T18:36:22.015Z,75.21
2023-02-23T18:38:49.260Z,75.25
2023-02-23T18:41:16.981Z,75.78
2023-02-23T18:43:43.935Z,75.66
2023-02-23T18:46:13.290Z,75.97
2023-02-23T18:48:41.267Z,76.06
2023-02-23T18:51:12.395Z,76.54
2023-02-23T18:53:39.324Z,76.42
2023-02-23T18:56:16.222Z,76.72
2023-02-23T18:58:44.943Z,76.73
2023-02-23T19:01:20.586Z,77.01
2023-02-23T19:03:49.294Z,77.34
2023-02-23T19:06:17.911Z,77.39
2023-02-23T19:08:49.280Z,77.35
2023-02-23T19:11:16.357Z,77.72
2023-02-23T19:13:43.388Z,77.76
2023-02-23T19:16:10.674Z,78.10
2023-02-23T19:18:37.549Z,78.06
2023-02-23T19:21:04.943Z,78.56
2023-02-23T19:23:31.901Z,78.53
2023-02-23T19:26:02.471Z,78.76
2023-02-23T19:28:30.215Z,78.65
2023-02-23T19:31:15.937Z,78.56
2023-02-23T19:33:43.550Z,79.12
2023-02-23T19:36:13.885Z,78.87
2023-02-23T19:38:45.741Z,79.14
2023-02-23T19:41:16.511Z,78.70
2023-02-23T19:43:43.774Z,78.95
2023-02-23T19:46:13.852Z,79.38
2023-02-23T19:48:40.818Z,79.17
2023-02-23T19:51:12.962Z,79.24
2023-02-23T19:53:40.183Z,79.77
2023-02-23T19:56:10.928Z,80.11
2023-02-23T19:58:38.315Z,79.94
2023-02-23T20:01:11.953Z,80.06
2023-02-23T20:03:43.346Z,80.48
2023-02-23T20:06:13.468Z,80.34
2023-02-23T20:08:42.227Z,80.68
2023-02-23T20:11:09.577Z,80.56
2023-02-23T20:13:38.670Z,80.97
2023-02-23T20:16:11.743Z,80.89
2023-02-23T20:18:40.222Z,81.06
2023-02-23T20:21:16.401Z,81.20
2023-02-23T20:23:44.661Z,81.07
2023-02-23T20:26:15.130Z,81.17
2023-02-23T20:28:42.338Z,81.67
2023-02-23T20:31:20.103Z,81.58
2023-02-23T20:33:50.837Z,82.14
2023-02-23T20:36:22.268Z,82.09
2023-02-23T20:38:49.233Z,82.19
2023-02-23T20:41:17.365Z,82.31
2023-02-23T20:43:44.935Z,82.72
2023-02-23T20:46:14.774Z,82.60
2023-02-23T20:48:42.671Z,82.94
2023-02-23T20:51:13.748Z,82.81
2023-02-23T20:53:42.025Z,82.94
2023-02-23T20:56:10.088Z,82.91
2023-02-23T20:58:37.207Z,83.00
2023-02-23T21:01:10.692Z,83.50
2023-02-23T21:03:37.680Z,83.55
2023-02-23T21:06:05.136Z,83.85
2023-02-23T21:08:32.176Z,83.71
2023-02-23T21:11:05.257Z,84.06
2023-02-23T21:13:34.030Z,83.99
2023-02-23T21:16:02.992Z,84.48
2023-02-23T21:18:31.386Z,84.15
2023-02-23T21:21:09.637Z,84.29
2023-02-23T21:23:38.589Z,84.07
2023-02-23T21:26:14.351Z,84.13
2023-02-23T21:28:46.614Z,84.70
2023-02-23T21:31:14.568Z,84.87
2023-02-23T21:33:43.483Z,85.09
2023-02-23T21:36:12.423Z,85.15
2023-02-23T21:38:42.472Z,84.98
2023-02-23T21:41:12.331Z,85.24
2023-02-23T21:43:41.278Z,84.76
2023-02-23T21:46:16.452Z,85.17
2023-02-23T21:48:43.966Z,85.10
2023-02-23T21:51:13.092Z,85.39
2023-02-23T21:53:40.965Z,85.28
2023-02-23T21:56:17.737Z,85.42
2023-02-23T21:58:50.982Z,85.94
2023-02-23T22:01:24.681Z,85.85
2023-02-23T22:03:54.763Z,86.05
2023-02-23T22:06:28.541Z,86.03
2023-02-23T22:08:56.689Z,86.27
2023-02-23T22:11:26.291Z,86.10
2023-02-23T22:13:59.335Z,86.52
2023-02-23T22:16:32.303Z,86.33
2023-02-23T22:19:03.644Z,86.37
2023-02-23T22:21:33.454Z,86.66
2023-02-23T22:24:01.700Z,86.40
2023-02-23T22:26:30.335Z,86.50
2023-02-23T22:28:57.328Z,87.03
2023-02-23T22:31:25.048Z,86.80
2023-02-23T22:33:52.181Z,86.55
2023-02-23T22:36:19.968Z,86.52
2023-02-23T22:38:46.905Z,86.85
2023-02-23T22:41:14.144Z,86.79
2023-02-23T22:43:46.126Z,87.24
2023-02-23T22:46:16.282Z,86.74
2023-02-23T22:48:45.066Z,87.35
2023-02-23T22:51:14.198Z,86.88
2023-02-23T22:53:41.336Z,86.83
2023-02-23T22:56:09.708Z,87.00
2023-02-23T22:58:36.987Z,87.28
2023-02-23T23:01:06.331Z,87.58
2023-02-23T23:03:47.991Z,87.40
2023-02-23T23:06:17.950Z,87.53
2023-02-23T23:08:45.757Z,87.58
2023-02-23T23:11:16.099Z,87.76
2023-02-23T23:13:46.526Z,88.06
2023-02-23T23:16:31.551Z,87.91
2023-02-23T23:19:02.890Z,87.65
2023-02-23T23:21:32.779Z,88.27
2023-02-23T23:24:05.675Z,87.83
2023-02-23T23:26:35.542Z,87.96
2023-02-23T23:29:07.894Z,87.71
2023-02-23T23:31:35.611Z,87.76
2023-02-23T23:34:06.040Z,88.33
2023-02-23T23:36:42.964Z,88.15
2023-02-23T23:39:16.330Z,87.87
2023-02-23T23:41:46.819Z,88.06
2023-02-23T23:44:19.126Z,87.97
2023-02-23T23:46:47.272Z,87.92
2023-02-23T23:49:17.255Z,87.78
2023-02-23T23:51:47.855Z,87.77
2023-02-23T23:54:18.055Z,87.76
2023-02-23T23:56:45.342Z,87.27
2023-02-23T23:59:17.638Z,87.23
